Time;durP1;ratioP1;P1;durP2;ratioP2;P2;SDS_P1;SDS_P2;PMS_P1;PMS_P2;Temp;Humidity;BMP_temperature;BMP_pressure;BME280_temperature;BME280_humidity;BME280_pressure;Samples;Min_cycle;Max_cycle;Signal;HPM_P1;HPM_P2
2022/04/29 00:00:46;;;;;;;8.40;7.57;;;12.30;70.30;;;;;;4979773;28;20947;-42
2022/04/29 00:03:14;;;;;;;8.63;7.63;;;12.20;70.30;;;;;;4981712;28;20463;-42
2022/04/29 00:05:42;;;;;;;9.17;7.90;;;12.20;70.30;;;;;;4967879;28;20497;-41
2022/04/29 00:08:10;;;;;;;8.90;7.90;;;12.20;70.30;;;;;;4965083;28;20475;-41
2022/04/29 00:10:38;;;;;;;10.43;8.03;;;12.30;69.60;;;;;;4981324;28;20496;-41
2022/04/29 00:13:07;;;;;;;10.27;8.07;;;12.30;69.50;;;;;;4983007;28;20460;-41
2022/04/29 00:15:34;;;;;;;9.03;7.80;;;12.20;69.30;;;;;;4980197;28;20472;-42
2022/04/29 00:18:01;;;;;;;11.07;7.87;;;12.20;69.40;;;;;;4979585;28;20974;-42
2022/04/29 00:20:28;;;;;;;9.40;7.30;;;12.10;69.60;;;;;;4965638;28;20474;-41
2022/04/29 00:22:55;;;;;;;8.40;7.50;;;12.10;69.80;;;;;;4981274;28;20749;-41
2022/04/29 00:25:22;;;;;;;9.20;8.30;;;12.10;69.90;;;;;;4963331;28;20587;-41
2022/04/29 00:27:49;;;;;;;12.63;8.13;;;12.00;70.10;;;;;;4979645;28;20709;-41
2022/04/29 00:30:15;;;;;;;9.63;8.33;;;12.00;70.10;;;;;;4980647;28;20555;-41
2022/04/29 00:32:42;;;;;;;11.60;8.03;;;11.90;70.10;;;;;;4981404;28;20489;-41
2022/04/29 00:35:10;;;;;;;12.83;8.87;;;11.90;70.40;;;;;;4982403;28;20468;-41
2022/04/29 00:37:50;;;;;;;9.10;8.20;;;11.80;70.70;;;;;;4979996;28;20464;-41
2022/04/29 00:40:20;;;;;;;9.33;8.33;;;11.80;70.90;;;;;;4979838;28;20476;-41
2022/04/29 00:42:47;;;;;;;8.67;7.77;;;11.80;70.90;;;;;;4981262;28;20465;-41
2022/04/29 00:45:16;;;;;;;8.00;7.20;;;11.80;70.90;;;;;;4964115;28;20514;-41
2022/04/29 00:47:43;;;;;;;10.73;8.50;;;11.70;70.90;;;;;;4979929;28;20468;-41
2022/04/29 00:50:12;;;;;;;11.63;8.60;;;11.70;71.20;;;;;;4977595;28;20574;-41
2022/04/29 00:52:45;;;;;;;12.67;9.80;;;11.70;71.40;;;;;;4978974;28;20584;-42
2022/04/29 00:55:14;;;;;;;11.03;9.00;;;11.70;71.50;;;;;;4965989;28;20469;-42
2022/04/29 00:57:43;;;;;;;11.30;8.60;;;11.60;71.70;;;;;;4981794;28;20827;-42
2022/04/29 01:00:14;;;;;;;10.23;8.83;;;11.60;71.80;;;;;;4980133;28;20464;-42
2022/04/29 01:02:54;;;;;;;10.40;8.70;;;11.60;72.00;;;;;;4980779;28;20477;-42
2022/04/29 01:05:23;;;;;;;10.60;8.50;;;11.60;72.10;;;;;;4981415;28;20479;-41
2022/04/29 01:07:51;;;;;;;9.80;8.30;;;11.50;72.10;;;;;;4975096;28;21054;-41
2022/04/29 01:10:23;;;;;;;9.23;8.30;;;11.50;72.10;;;;;;4980541;28;20554;-41
2022/04/29 01:12:55;;;;;;;9.57;8.60;;;11.50;72.00;;;;;;4962859;28;20562;-41
2022/04/29 01:15:22;;;;;;;11.33;8.80;;;11.50;72.20;;;;;;4973114;28;20469;-41
2022/04/29 01:17:53;;;;;;;8.80;7.90;;;11.50;72.30;;;;;;4963658;28;20512;-42
2022/04/29 01:20:25;;;;;;;10.40;8.57;;;11.50;72.50;;;;;;4979587;28;20471;-42
2022/04/29 01:22:52;;;;;;;9.10;8.17;;;11.40;72.60;;;;;;4979547;28;20459;-42
2022/04/29 01:25:19;;;;;;;11.87;8.10;;;11.40;72.70;;;;;;4977560;28;20982;-42
2022/04/29 01:27:45;;;;;;;9.30;8.33;;;11.40;72.80;;;;;;4984170;28;20459;-42
2022/04/29 01:30:16;;;;;;;10.40;8.50;;;11.40;72.80;;;;;;4980205;28;20464;-42
2022/04/29 01:32:43;;;;;;;10.73;9.17;;;11.40;72.80;;;;;;4979896;28;20567;-42
2022/04/29 01:35:13;;;;;;;10.17;8.87;;;11.40;73.10;;;;;;4981789;28;20937;-41
2022/04/29 01:37:40;;;;;;;9.27;8.27;;;11.40;73.10;;;;;;4962351;28;20473;-42
2022/04/29 01:40:09;;;;;;;13.40;9.47;;;11.40;73.20;;;;;;4984456;28;20460;-42
2022/04/29 01:42:37;;;;;;;10.90;8.77;;;11.30;73.40;;;;;;4962728;28;21012;-42
2022/04/29 01:45:04;;;;;;;12.93;9.03;;;11.30;73.40;;;;;;4985383;28;21007;-42
2022/04/29 01:47:31;;;;;;;10.17;8.57;;;11.30;73.50;;;;;;4983226;28;20497;-42
2022/04/29 01:49:58;;;;;;;10.90;8.70;;;11.40;73.40;;;;;;4983273;28;20469;-42
2022/04/29 01:52:24;;;;;;;10.33;9.13;;;11.30;73.30;;;;;;4983122;28;20965;-42
2022/04/29 01:54:51;;;;;;;10.27;8.53;;;11.30;73.30;;;;;;4986014;28;20460;-42
2022/04/29 01:57:18;;;;;;;10.20;8.30;;;11.30;73.40;;;;;;4984139;28;20994;-42
2022/04/29 01:59:45;;;;;;;11.70;8.43;;;11.30;73.40;;;;;;4983220;28;20996;-42
2022/04/29 02:02:12;;;;;;;9.83;8.80;;;11.20;73.40;;;;;;4982974;28;20480;-42
2022/04/29 02:04:39;;;;;;;9.73;8.73;;;11.20;73.40;;;;;;4981829;28;20471;-42
2022/04/29 02:07:06;;;;;;;10.40;9.27;;;11.20;73.50;;;;;;4969326;28;20493;-42
2022/04/29 02:09:33;;;;;;;9.30;8.40;;;11.20;73.60;;;;;;4971602;28;20729;-41
2022/04/29 02:12:06;;;;;;;9.83;8.33;;;11.20;73.70;;;;;;4983932;28;20460;-41
2022/04/29 02:14:39;;;;;;;9.07;8.13;;;11.20;73.70;;;;;;4968886;28;20539;-42
2022/04/29 02:17:08;;;;;;;12.63;9.43;;;11.10;73.80;;;;;;4968880;28;20468;-42
2022/04/29 02:19:36;;;;;;;11.50;8.27;;;11.10;73.80;;;;;;4983017;28;20463;-42
2022/04/29 02:22:06;;;;;;;9.50;8.33;;;11.10;73.90;;;;;;4982935;28;20992;-42
2022/04/29 02:24:32;;;;;;;9.93;8.90;;;11.10;74.00;;;;;;4979264;28;20469;-42
2022/04/29 02:27:00;;;;;;;10.93;8.57;;;11.10;74.00;;;;;;4981517;28;20499;-42
2022/04/29 02:29:27;;;;;;;13.23;9.37;;;11.10;73.90;;;;;;4983242;28;20471;-42
2022/04/29 02:31:56;;;;;;;10.07;8.23;;;11.00;73.80;;;;;;4983543;28;21008;-42
2022/04/29 02:34:23;;;;;;;12.27;9.87;;;11.00;73.60;;;;;;4985905;28;20469;-42
2022/04/29 02:36:52;;;;;;;9.80;8.50;;;11.00;73.60;;;;;;4981702;28;20539;-42
2022/04/29 02:39:19;;;;;;;10.53;9.50;;;10.90;73.60;;;;;;4968631;28;20970;-42
2022/04/29 02:41:46;;;;;;;9.70;8.70;;;10.90;73.90;;;;;;4984980;28;20459;-41
2022/04/29 02:44:13;;;;;;;12.17;9.20;;;10.90;74.00;;;;;;4984725;28;20464;-41
2022/04/29 02:47:06;;;;;;;10.23;8.40;;;10.90;74.10;;;;;;4983659;28;20547;-41
2022/04/29 02:49:27;;;;;;;11.33;8.43;;;10.90;74.00;;;;;;4981874;28;20457;-41
2022/04/29 02:51:54;;;;;;;10.57;7.90;;;10.80;74.00;;;;;;4980134;28;20496;-41
2022/04/29 02:54:21;;;;;;;10.30;8.80;;;10.80;74.20;;;;;;4968615;28;20998;-41
2022/04/29 02:56:50;;;;;;;8.87;7.67;;;10.80;74.10;;;;;;4983074;28;20467;-43
2022/04/29 02:59:18;;;;;;;13.27;9.57;;;10.70;74.20;;;;;;4982553;28;20461;-43
2022/04/29 03:01:45;;;;;;;9.70;8.80;;;10.70;74.30;;;;;;4981919;28;20487;-43
2022/04/29 03:04:12;;;;;;;11.40;8.97;;;10.70;74.40;;;;;;4963824;28;20471;-43
2022/04/29 03:06:39;;;;;;;10.00;8.63;;;10.70;74.30;;;;;;4964401;28;20491;-43
2022/04/29 03:09:06;;;;;;;10.80;8.50;;;10.70;74.40;;;;;;4983793;28;20460;-43
2022/04/29 03:11:33;;;;;;;17.60;8.93;;;10.70;74.40;;;;;;4984408;28;20468;-43
2022/04/29 03:14:00;;;;;;;9.63;8.70;;;10.60;74.30;;;;;;4977464;28;20456;-43
2022/04/29 03:16:26;;;;;;;10.30;9.20;;;10.60;74.20;;;;;;4982768;28;20984;-43
2022/04/29 03:18:53;;;;;;;9.87;8.80;;;10.60;74.20;;;;;;4982195;28;20888;-43
2022/04/29 03:21:20;;;;;;;12.07;8.93;;;10.60;74.30;;;;;;4965581;28;20554;-43
2022/04/29 03:23:48;;;;;;;9.77;8.63;;;10.60;74.40;;;;;;4982808;28;21217;-43
2022/04/29 03:26:15;;;;;;;10.10;9.00;;;10.60;74.50;;;;;;4958899;28;20533;-43
2022/04/29 03:28:42;;;;;;;9.03;8.10;;;10.50;74.50;;;;;;4967609;28;21745;-43
2022/04/29 03:31:09;;;;;;;10.30;9.20;;;10.50;74.70;;;;;;4980251;28;20975;-43
2022/04/29 03:33:36;;;;;;;10.97;9.47;;;10.50;74.80;;;;;;4965162;28;20463;-43
2022/04/29 03:36:03;;;;;;;10.40;9.00;;;10.40;74.90;;;;;;4981091;28;20464;-43
2022/04/29 03:38:30;;;;;;;14.00;9.90;;;10.40;75.10;;;;;;4979815;28;20471;-43
2022/04/29 03:40:57;;;;;;;10.60;9.53;;;10.40;75.20;;;;;;4982555;28;20460;-43
2022/04/29 03:43:24;;;;;;;10.40;9.30;;;10.40;75.20;;;;;;4983388;28;20476;-43
2022/04/29 03:45:51;;;;;;;9.77;8.77;;;10.40;75.30;;;;;;4980323;28;20471;-44
2022/04/29 03:48:18;;;;;;;13.50;9.90;;;10.40;75.30;;;;;;4979938;28;20456;-43
2022/04/29 03:50:45;;;;;;;12.30;11.00;;;10.40;75.30;;;;;;4979448;28;20467;-43
2022/04/29 03:53:12;;;;;;;10.73;9.13;;;10.40;75.40;;;;;;4978900;28;22201;-43
2022/04/29 03:55:39;;;;;;;11.00;9.87;;;10.40;75.40;;;;;;4981500;28;20462;-43
2022/04/29 03:58:06;;;;;;;10.17;8.50;;;10.40;75.40;;;;;;4960834;28;20840;-43
2022/04/29 04:00:34;;;;;;;10.30;9.30;;;10.30;75.40;;;;;;4967425;28;20550;-43
2022/04/29 04:03:05;;;;;;;9.20;8.30;;;10.30;75.50;;;;;;4978588;28;20823;-43
2022/04/29 04:05:33;;;;;;;12.43;9.70;;;10.30;75.50;;;;;;4976634;28;20475;-43
2022/04/29 04:08:00;;;;;;;14.53;9.80;;;10.30;75.60;;;;;;4978845;28;20500;-43
2022/04/29 04:10:27;;;;;;;14.10;10.00;;;10.30;75.60;;;;;;4982294;28;20464;-43
2022/04/29 04:12:53;;;;;;;11.50;8.90;;;10.30;75.50;;;;;;4981005;28;20467;-43
2022/04/29 04:15:23;;;;;;;12.73;9.63;;;10.20;75.50;;;;;;4981413;28;20464;-43
2022/04/29 04:17:50;;;;;;;10.23;8.93;;;10.20;75.50;;;;;;4980639;28;20474;-43
2022/04/29 04:20:18;;;;;;;10.40;9.20;;;10.20;75.60;;;;;;4981517;28;20464;-44
2022/04/29 04:22:45;;;;;;;12.43;9.00;;;10.20;75.60;;;;;;4981214;28;20476;-44
2022/04/29 04:25:14;;;;;;;11.57;10.20;;;10.20;75.70;;;;;;4979621;28;20528;-44
2022/04/29 04:27:41;;;;;;;10.70;9.47;;;10.20;75.80;;;;;;4979702;28;21063;-44
2022/04/29 04:30:09;;;;;;;11.80;10.47;;;10.20;75.80;;;;;;4980728;28;20465;-44
2022/04/29 04:32:37;;;;;;;10.30;9.10;;;10.20;75.90;;;;;;4980138;28;20476;-44
2022/04/29 04:35:05;;;;;;;12.30;10.27;;;10.20;75.90;;;;;;4977565;28;20550;-44
2022/04/29 04:37:32;;;;;;;11.37;9.57;;;10.20;76.20;;;;;;4979997;28;20480;-44
2022/04/29 04:39:59;;;;;;;11.53;9.57;;;10.20;76.40;;;;;;4980048;28;20508;-44
2022/04/29 04:42:26;;;;;;;13.10;9.90;;;10.20;76.40;;;;;;4978419;28;20480;-44
2022/04/29 04:44:53;;;;;;;11.20;9.67;;;10.20;76.50;;;;;;4959497;28;20464;-44
2022/04/29 04:47:21;;;;;;;12.27;11.00;;;10.20;76.60;;;;;;4980025;28;20850;-43
2022/04/29 04:49:48;;;;;;;12.70;9.70;;;10.30;76.60;;;;;;4978240;28;20467;-44
2022/04/29 04:52:14;;;;;;;11.33;10.13;;;10.30;76.70;;;;;;4981985;28;20487;-44
2022/04/29 04:54:41;;;;;;;11.70;10.03;;;10.30;76.70;;;;;;4979859;28;20460;-44
2022/04/29 04:57:08;;;;;;;13.67;9.27;;;10.40;76.70;;;;;;4981658;28;20468;-44
2022/04/29 04:59:35;;;;;;;12.43;9.83;;;10.40;76.80;;;;;;4962455;28;20479;-44
2022/04/29 05:02:02;;;;;;;10.90;9.50;;;10.50;76.80;;;;;;4983086;28;20464;-44
2022/04/29 05:04:29;;;;;;;12.17;10.13;;;10.50;76.80;;;;;;4980554;28;20515;-44
2022/04/29 05:06:56;;;;;;;14.40;10.17;;;10.60;76.70;;;;;;4979327;28;20754;-44
2022/04/29 05:09:22;;;;;;;12.53;9.37;;;10.60;76.60;;;;;;4976163;28;20925;-44
2022/04/29 05:11:50;;;;;;;10.93;9.77;;;10.70;76.40;;;;;;4981075;28;20479;-44
2022/04/29 05:14:34;;;;;;;11.07;8.83;;;10.70;76.10;;;;;;4965908;28;20991;-43
2022/04/29 05:17:02;;;;;;;11.37;9.60;;;10.80;76.00;;;;;;4980626;28;20465;-44
2022/04/29 05:19:29;;;;;;;11.87;9.57;;;10.80;76.00;;;;;;4981680;28;20503;-43
2022/04/29 05:21:55;;;;;;;14.80;10.93;;;10.90;75.90;;;;;;4983262;28;20470;-43
2022/04/29 05:24:22;;;;;;;12.77;10.00;;;10.90;75.70;;;;;;4980109;28;20480;-43
2022/04/29 05:26:53;;;;;;;11.03;9.43;;;11.00;75.80;;;;;;4963011;28;20898;-43
2022/04/29 05:29:20;;;;;;;14.57;11.07;;;11.00;75.80;;;;;;4983745;28;20470;-44
2022/04/29 05:31:47;;;;;;;13.37;10.80;;;11.00;75.90;;;;;;4983143;28;20467;-43
2022/04/29 05:34:15;;;;;;;12.17;10.47;;;11.00;75.90;;;;;;4982949;28;20473;-43
2022/04/29 05:36:42;;;;;;;14.23;11.27;;;11.00;76.00;;;;;;4987306;28;20476;-44
2022/04/29 05:44:40;;;;;;;13.23;11.20;;;11.20;76.00;;;;;;4993504;28;20818;-46
2022/04/29 05:47:07;;;;;;;13.60;10.30;;;11.30;76.00;;;;;;4989776;28;20492;-46
2022/04/29 05:49:34;;;;;;;12.50;10.20;;;11.30;75.70;;;;;;4989155;28;20468;-46
2022/04/29 05:52:02;;;;;;;13.90;11.33;;;11.40;75.70;;;;;;4991995;28;20460;-46
2022/04/29 05:54:30;;;;;;;14.50;10.47;;;11.40;75.70;;;;;;4980351;28;20462;-46
2022/04/29 05:56:58;;;;;;;11.97;10.27;;;11.50;75.60;;;;;;4985962;28;20467;-46
2022/04/29 05:59:25;;;;;;;15.40;11.77;;;11.50;75.90;;;;;;4986841;28;20456;-46
2022/04/29 06:01:52;;;;;;;12.70;10.70;;;11.60;76.00;;;;;;4984305;28;20458;-46
2022/04/29 06:04:19;;;;;;;13.00;11.00;;;11.70;76.00;;;;;;4985385;28;20486;-46
2022/04/29 06:06:46;;;;;;;12.60;11.30;;;11.70;76.00;;;;;;4973733;28;20515;-46
2022/04/29 06:09:13;;;;;;;12.70;11.33;;;11.70;76.00;;;;;;4984576;28;20448;-46
2022/04/29 06:11:40;;;;;;;14.57;11.10;;;11.80;76.00;;;;;;4984634;28;20993;-46
2022/04/29 06:14:06;;;;;;;13.47;10.90;;;11.80;75.90;;;;;;4982476;28;20487;-46
2022/04/29 06:16:33;;;;;;;13.60;11.10;;;11.90;75.90;;;;;;4984894;28;20474;-47
2022/04/29 06:19:00;;;;;;;14.47;11.80;;;12.00;76.00;;;;;;4983030;28;20501;-46
2022/04/29 06:21:27;;;;;;;14.00;11.00;;;12.00;75.90;;;;;;4980088;28;20826;-46
2022/04/29 06:23:53;;;;;;;12.93;11.60;;;12.10;75.80;;;;;;4979967;28;20760;-46
2022/04/29 06:26:20;;;;;;;14.00;11.17;;;12.20;75.70;;;;;;4973143;28;20471;-46
2022/04/29 06:28:47;;;;;;;11.63;10.43;;;12.20;75.60;;;;;;4980983;28;20538;-46
2022/04/29 06:31:16;;;;;;;13.10;10.60;;;12.30;74.80;;;;;;4983063;28;20480;-46
2022/04/29 06:33:43;;;;;;;11.30;10.03;;;12.40;74.30;;;;;;4980574;28;20551;-46
2022/04/29 06:36:10;;;;;;;13.37;10.83;;;12.40;74.30;;;;;;4976497;28;20456;-46
2022/04/29 06:38:37;;;;;;;12.93;11.53;;;12.50;74.10;;;;;;4962638;28;20457;-46
2022/04/29 06:41:04;;;;;;;15.30;11.07;;;12.50;74.10;;;;;;4981014;28;20492;-46
2022/04/29 06:43:31;;;;;;;14.40;9.90;;;12.60;73.90;;;;;;4961885;28;20554;-46
2022/04/29 06:45:57;;;;;;;15.20;11.53;;;12.70;73.20;;;;;;4984692;28;20855;-46
2022/04/29 06:48:24;;;;;;;14.37;10.30;;;12.70;72.90;;;;;;4963486;28;20492;-46
2022/04/29 06:50:51;;;;;;;12.40;11.10;;;12.70;72.80;;;;;;4981758;28;20473;-46
2022/04/29 06:53:18;;;;;;;12.23;10.80;;;12.80;72.80;;;;;;4982755;28;20572;-46
2022/04/29 06:55:45;;;;;;;15.60;11.20;;;12.80;72.90;;;;;;4984578;28;20462;-46
2022/04/29 06:58:12;;;;;;;14.37;10.30;;;12.90;73.30;;;;;;4980828;28;20971;-46
2022/04/29 07:00:40;;;;;;;13.90;11.63;;;12.90;73.30;;;;;;4977049;28;20466;-46
2022/04/29 07:03:07;;;;;;;15.50;11.27;;;12.90;73.20;;;;;;4975987;28;20466;-46
2022/04/29 07:05:37;;;;;;;13.50;12.10;;;13.00;73.00;;;;;;4983693;28;20539;-46
2022/04/29 07:08:05;;;;;;;14.97;11.73;;;13.10;72.70;;;;;;4983026;28;21023;-46
2022/04/29 07:10:32;;;;;;;15.40;12.27;;;13.20;72.20;;;;;;4984297;28;20985;-46
2022/04/29 07:12:59;;;;;;;18.73;12.87;;;13.20;71.80;;;;;;4985025;28;20475;-46
2022/04/29 07:15:26;;;;;;;12.57;10.33;;;13.30;71.80;;;;;;4981190;28;20837;-46
2022/04/29 07:17:52;;;;;;;17.07;11.73;;;13.30;72.00;;;;;;4981900;28;20499;-46
2022/04/29 07:20:19;;;;;;;17.07;12.67;;;13.30;72.10;;;;;;4983946;28;20475;-46
2022/04/29 07:22:50;;;;;;;15.00;11.20;;;13.40;71.60;;;;;;4985318;28;20465;-47
2022/04/29 07:25:19;;;;;;;22.23;13.53;;;13.40;71.30;;;;;;4984709;28;20468;-47
2022/04/29 07:27:48;;;;;;;16.70;12.87;;;13.50;70.80;;;;;;4983656;28;20485;-47
2022/04/29 07:30:16;;;;;;;13.90;11.50;;;13.60;70.60;;;;;;4983988;28;20580;-47
2022/04/29 07:32:43;;;;;;;16.60;11.57;;;13.70;70.40;;;;;;4966318;28;20982;-46
2022/04/29 07:43:29;;;;;;;17.47;11.53;;;14.00;69.00;;;;;;4985372;28;20493;-45
2022/04/29 07:45:58;;;;;;;16.03;12.03;;;14.10;68.70;;;;;;4980598;28;20808;-46
2022/04/29 07:48:25;;;;;;;13.90;12.20;;;14.20;69.20;;;;;;4958673;28;20492;-46
2022/04/29 07:50:52;;;;;;;15.30;12.27;;;14.30;69.30;;;;;;4977319;28;20806;-46
2022/04/29 07:53:19;;;;;;;16.50;12.53;;;14.30;68.90;;;;;;4981996;28;20460;-47
2022/04/29 07:55:46;;;;;;;16.17;12.00;;;14.40;68.20;;;;;;4980974;28;20500;-48
2022/04/29 07:58:14;;;;;;;14.83;12.20;;;14.50;67.60;;;;;;4967992;28;20832;-47
2022/04/29 08:00:43;;;;;;;22.93;12.80;;;14.70;66.40;;;;;;4979247;28;20977;-47
2022/04/29 08:03:29;;;;;;;17.77;11.57;;;14.70;65.70;;;;;;4980699;28;20481;-47
2022/04/29 08:05:56;;;;;;;18.60;12.40;;;14.90;65.60;;;;;;4979879;28;20468;-47
2022/04/29 08:08:23;;;;;;;14.70;12.80;;;15.00;65.40;;;;;;4980599;28;20985;-47
2022/04/29 08:10:50;;;;;;;17.43;13.00;;;15.00;63.90;;;;;;4966871;28;20469;-47
2022/04/29 08:13:17;;;;;;;15.60;12.50;;;15.10;64.30;;;;;;4969153;28;20464;-47
2022/04/29 08:15:45;;;;;;;15.13;12.23;;;15.30;64.10;;;;;;4983519;28;20472;-46
2022/04/29 08:18:12;;;;;;;14.70;11.83;;;15.40;63.60;;;;;;4986883;28;20449;-47
2022/04/29 08:20:40;;;;;;;17.97;12.60;;;15.60;63.40;;;;;;4982645;28;20558;-47
2022/04/29 08:23:07;;;;;;;14.03;12.30;;;15.70;63.20;;;;;;4982266;28;20557;-46
2022/04/29 08:25:34;;;;;;;15.80;12.10;;;15.90;63.70;;;;;;4979627;28;20490;-46
2022/04/29 08:28:02;;;;;;;16.37;12.87;;;16.00;64.00;;;;;;4980769;28;20525;-46
2022/04/29 08:30:30;;;;;;;18.27;12.03;;;16.10;63.90;;;;;;4968176;28;20473;-45
2022/04/29 08:32:59;;;;;;;20.73;12.30;;;16.20;63.60;;;;;;4987746;28;20837;-46
2022/04/29 08:35:27;;;;;;;18.13;12.50;;;16.30;63.10;;;;;;4987764;28;20464;-46
2022/04/29 08:37:54;;;;;;;13.70;11.50;;;16.40;62.10;;;;;;4986608;28;20470;-46
2022/04/29 08:40:21;;;;;;;13.33;11.43;;;16.40;60.80;;;;;;4987537;28;20480;-47
2022/04/29 08:42:49;;;;;;;18.33;12.63;;;16.50;60.40;;;;;;4983557;28;21305;-47
2022/04/29 08:45:18;;;;;;;15.50;12.27;;;16.50;59.90;;;;;;4984571;28;20469;-47
2022/04/29 08:47:46;;;;;;;13.73;12.33;;;16.70;59.60;;;;;;4986552;28;20503;-47
2022/04/29 08:50:18;;;;;;;15.30;12.30;;;16.90;59.40;;;;;;4990834;28;20554;-47
2022/04/29 08:52:46;;;;;;;16.57;11.63;;;17.10;58.90;;;;;;4970576;28;20523;-47
2022/04/29 09:00:45;;;;;;;15.67;10.90;;;17.80;57.60;;;;;;4987591;28;20470;-47
2022/04/29 09:03:18;;;;;;;15.57;12.13;;;18.00;55.70;;;;;;4989004;28;20538;-46
2022/04/29 09:05:46;;;;;;;14.70;11.00;;;18.30;56.10;;;;;;4981558;28;20487;-46
2022/04/29 09:08:16;;;;;;;13.53;10.33;;;18.50;54.90;;;;;;4985262;28;20946;-47
2022/04/29 09:10:52;;;;;;;13.20;11.20;;;18.80;55.70;;;;;;4983292;28;20539;-46
2022/04/29 09:13:27;;;;;;;15.37;12.17;;;19.00;54.40;;;;;;4983705;28;20460;-46
2022/04/29 09:15:59;;;;;;;13.40;11.40;;;19.30;53.70;;;;;;4983805;28;20463;-46
2022/04/29 09:18:49;;;;;;;11.73;10.57;;;19.70;52.50;;;;;;4987552;28;20456;-46
2022/04/29 09:21:23;;;;;;;14.83;10.50;;;19.90;52.10;;;;;;4983714;28;20560;-46
2022/04/29 09:23:55;;;;;;;11.97;10.70;;;20.00;51.90;;;;;;4987765;28;20491;-46
2022/04/29 09:26:28;;;;;;;13.33;11.60;;;20.10;52.80;;;;;;4966580;28;20477;-46
2022/04/29 09:29:09;;;;;;;17.00;11.20;;;20.10;51.90;;;;;;4983762;28;20928;-46
2022/04/29 09:31:54;;;;;;;16.57;11.03;;;20.10;51.30;;;;;;4982175;28;20996;-47
2022/04/29 09:34:53;;;;;;;13.13;9.93;;;20.10;52.40;;;;;;4985092;28;20464;-47
2022/04/29 09:37:26;;;;;;;12.23;10.30;;;20.20;51.70;;;;;;4981534;28;20468;-46
2022/04/29 09:39:57;;;;;;;12.63;10.23;;;20.20;51.70;;;;;;4980978;28;20524;-46
2022/04/29 09:42:35;;;;;;;13.30;9.63;;;20.20;51.60;;;;;;4970950;28;20532;-46
2022/04/29 09:45:17;;;;;;;14.13;10.60;;;20.10;51.20;;;;;;4982940;28;21154;-47
2022/04/29 09:47:45;;;;;;;10.83;9.37;;;20.20;51.20;;;;;;4982751;28;20471;-46
2022/04/29 09:50:12;;;;;;;12.90;9.60;;;20.20;50.70;;;;;;4967748;28;20974;-46
2022/04/29 09:52:44;;;;;;;10.30;9.40;;;20.20;50.90;;;;;;4988878;28;20468;-46
2022/04/29 09:55:13;;;;;;;11.50;10.30;;;20.30;51.10;;;;;;4987495;28;20490;-46
2022/04/29 09:57:56;;;;;;;10.73;9.63;;;20.20;51.00;;;;;;4987005;28;20461;-46
2022/04/29 10:00:24;;;;;;;12.00;10.07;;;20.10;51.30;;;;;;4990439;28;20465;-46
2022/04/29 10:02:52;;;;;;;12.17;10.80;;;20.00;50.20;;;;;;4987770;28;20996;-46
2022/04/29 10:05:19;;;;;;;13.83;10.03;;;19.80;49.90;;;;;;4991413;28;20457;-46
2022/04/29 10:07:47;;;;;;;10.03;9.03;;;19.70;50.40;;;;;;4988155;28;20528;-46
2022/04/29 10:10:15;;;;;;;11.40;8.23;;;19.80;51.20;;;;;;4989669;28;20470;-46
2022/04/29 10:12:47;;;;;;;11.47;9.40;;;19.80;51.00;;;;;;4989581;28;20533;-46
2022/04/29 10:15:17;;;;;;;11.63;9.53;;;19.80;50.40;;;;;;4987804;28;20501;-46
2022/04/29 10:23:22;;;;;;;10.63;9.20;;;20.10;49.10;;;;;;4991346;28;20699;-46
2022/04/29 10:25:49;;;;;;;10.53;9.30;;;20.40;49.40;;;;;;4972783;28;20460;-46
2022/04/29 10:28:19;;;;;;;15.47;10.27;;;20.70;49.00;;;;;;4991275;28;20973;-47
2022/04/29 10:30:46;;;;;;;11.17;10.00;;;21.10;48.50;;;;;;4988801;28;20563;-47
2022/04/29 10:33:25;;;;;;;12.90;9.00;;;21.50;48.00;;;;;;4987501;28;20445;-47
2022/04/29 10:35:54;;;;;;;10.17;9.27;;;21.70;47.80;;;;;;4987454;28;20509;-46
2022/04/29 10:38:27;;;;;;;11.60;9.50;;;22.00;46.40;;;;;;4989603;28;20479;-46
2022/04/29 10:41:06;;;;;;;10.53;9.20;;;22.20;46.50;;;;;;4985724;28;20944;-46
2022/04/29 10:44:01;;;;;;;11.80;8.70;;;22.10;46.10;;;;;;4988200;28;20471;-46
2022/04/29 10:46:41;;;;;;;9.77;8.50;;;22.00;46.00;;;;;;4988670;28;20479;-47
2022/04/29 10:49:28;;;;;;;8.90;8.00;;;21.80;45.50;;;;;;4987570;28;20496;-46
2022/04/29 10:52:00;;;;;;;9.60;8.63;;;21.70;45.70;;;;;;4987956;28;20446;-46
2022/04/29 10:54:33;;;;;;;15.20;8.50;;;21.50;45.20;;;;;;4986363;28;20509;-46
2022/04/29 10:57:12;;;;;;;9.03;7.50;;;21.30;45.30;;;;;;4989524;28;20469;-46
2022/04/29 11:00:00;;;;;;;11.73;8.60;;;21.20;45.80;;;;;;4986731;28;20475;-47
2022/04/29 11:02:28;;;;;;;11.90;8.17;;;21.00;46.20;;;;;;4986271;28;20479;-46
2022/04/29 11:04:57;;;;;;;7.90;7.10;;;20.90;46.40;;;;;;4988440;28;20464;-46
2022/04/29 11:07:44;;;;;;;8.30;7.50;;;20.90;46.80;;;;;;4987037;28;20473;-46
2022/04/29 11:10:14;;;;;;;14.63;7.70;;;20.80;47.40;;;;;;4986744;28;20849;-46
2022/04/29 11:12:54;;;;;;;10.07;7.90;;;20.70;47.90;;;;;;4973116;28;20480;-46
2022/04/29 11:15:24;;;;;;;11.70;8.10;;;20.70;48.80;;;;;;4986912;28;20449;-46
2022/04/29 11:17:52;;;;;;;11.57;8.83;;;20.70;48.60;;;;;;4987144;28;20460;-46
2022/04/29 11:20:19;;;;;;;8.80;7.47;;;20.70;48.10;;;;;;4985753;28;20508;-46
2022/04/29 11:26:00;;;;;;;9.33;7.50;;;20.60;48.70;;;;;;4987321;28;20453;-47
2022/04/29 11:28:31;;;;;;;10.80;7.80;;;20.60;48.60;;;;;;4985632;28;20504;-47
2022/04/29 11:31:00;;;;;;;10.50;8.00;;;20.70;47.90;;;;;;4986462;28;21025;-47
2022/04/29 11:33:27;;;;;;;12.17;7.40;;;20.70;47.40;;;;;;4984372;28;20461;-47
2022/04/29 11:36:11;;;;;;;10.37;7.87;;;20.80;47.00;;;;;;4983306;28;20796;-47
2022/04/29 11:38:47;;;;;;;12.70;9.23;;;20.90;46.90;;;;;;4985571;28;20463;-47
2022/04/29 11:41:21;;;;;;;8.83;6.73;;;20.90;45.70;;;;;;4986495;28;20453;-47
2022/04/29 11:43:50;;;;;;;7.90;6.30;;;20.90;45.70;;;;;;4987522;28;20464;-47
2022/04/29 11:46:18;;;;;;;7.40;6.63;;;21.00;45.70;;;;;;4985914;28;20461;-47
2022/04/29 11:48:58;;;;;;;7.87;7.07;;;21.00;45.40;;;;;;4985889;28;20494;-47
2022/04/29 11:51:26;;;;;;;7.70;6.90;;;21.00;45.40;;;;;;4988404;28;20457;-47
2022/04/29 11:53:56;;;;;;;8.73;6.77;;;21.00;44.80;;;;;;4984617;28;20461;-47
2022/04/29 11:56:33;;;;;;;6.63;5.63;;;21.10;45.40;;;;;;4983780;28;20461;-47
2022/04/29 11:59:00;;;;;;;11.00;5.47;;;21.10;45.50;;;;;;4969877;28;20539;-47
2022/04/29 12:01:27;;;;;;;9.93;6.27;;;21.10;44.70;;;;;;4969668;28;20478;-47
2022/04/29 12:03:55;;;;;;;8.03;6.30;;;21.00;44.60;;;;;;4984562;28;20486;-47
2022/04/29 12:06:22;;;;;;;6.63;5.70;;;21.10;45.00;;;;;;4984790;28;20472;-47
2022/04/29 12:08:50;;;;;;;8.97;5.93;;;21.20;44.40;;;;;;4972250;28;20489;-47
2022/04/29 12:11:28;;;;;;;5.57;4.90;;;21.20;44.60;;;;;;4983921;28;20461;-47
2022/04/29 12:13:56;;;;;;;4.37;3.97;;;21.10;43.40;;;;;;4984171;28;20468;-47
2022/04/29 12:16:23;;;;;;;4.97;3.70;;;21.10;41.70;;;;;;4987095;28;20533;-47
2022/04/29 12:18:50;;;;;;;4.97;3.63;;;21.10;40.30;;;;;;4988198;28;20479;-47
2022/04/29 12:21:25;;;;;;;4.40;3.80;;;21.20;39.60;;;;;;4984407;28;20456;-47
2022/04/29 12:23:52;;;;;;;4.63;4.20;;;21.30;39.40;;;;;;4987191;28;20559;-47
2022/04/29 12:26:20;;;;;;;4.17;3.47;;;21.40;39.40;;;;;;4988101;28;20538;-47
2022/04/29 12:28:56;;;;;;;3.50;3.20;;;21.70;38.20;;;;;;4988112;28;20498;-47
2022/04/29 12:37:08;;;;;;;6.10;4.67;;;21.80;36.50;;;;;;4986986;28;20495;-46
2022/04/29 12:39:43;;;;;;;5.37;4.53;;;21.70;37.30;;;;;;4984241;28;20469;-46
2022/04/29 12:42:11;;;;;;;6.30;4.50;;;21.70;39.80;;;;;;4984975;28;20485;-43
2022/04/29 12:45:04;;;;;;;5.20;4.23;;;21.60;38.30;;;;;;4981193;28;20543;-43
2022/04/29 12:47:32;;;;;;;5.03;4.53;;;21.50;38.70;;;;;;4979346;28;20465;-44
2022/04/29 12:50:28;;;;;;;9.70;4.00;;;21.50;38.50;;;;;;4983550;28;20603;-43
2022/04/29 12:53:01;;;;;;;4.63;3.47;;;21.40;38.00;;;;;;4981149;28;20462;-44
2022/04/29 12:55:30;;;;;;;5.07;4.20;;;21.30;37.60;;;;;;4978565;28;20473;-43
2022/04/29 12:58:16;;;;;;;7.13;5.00;;;21.30;38.00;;;;;;4979583;28;20464;-43
2022/04/29 13:00:45;;;;;;;7.20;4.80;;;21.30;38.00;;;;;;4980732;28;20532;-43
2022/04/29 13:03:23;;;;;;;5.00;4.60;;;21.30;39.10;;;;;;4978648;28;20453;-43
2022/04/29 13:05:50;;;;;;;5.10;4.60;;;21.30;38.40;;;;;;4982390;28;20453;-43
2022/04/29 13:08:17;;;;;;;6.20;3.87;;;21.20;37.90;;;;;;4982955;28;20461;-43
2022/04/29 13:10:50;;;;;;;6.10;4.10;;;21.30;40.20;;;;;;4981061;28;20488;-44
2022/04/29 13:13:20;;;;;;;5.30;3.90;;;21.30;40.40;;;;;;4979654;28;20457;-43
2022/04/29 13:15:47;;;;;;;3.63;3.33;;;21.50;38.90;;;;;;4977667;28;20488;-44
2022/04/29 13:18:16;;;;;;;5.30;4.77;;;21.60;38.90;;;;;;4968303;28;21143;-44
2022/04/29 13:20:43;;;;;;;3.90;3.60;;;21.70;38.30;;;;;;4979875;28;20488;-44